Time;durP1;ratioP1;P1;durP2;ratioP2;P2;SDS_P1;SDS_P2;PMS_P1;PMS_P2;Temp;Humidity;BMP_temperature;BMP_pressure;BME280_temperature;BME280_humidity;BME280_pressure;Samples;Min_cycle;Max_cycle;Signal;HPM_P1;HPM_P2
2021/09/09 00:00:57;;;;;;;9.07;7.53;;;18.60;75.60;;;;;;6199201;28;20473;-78
2021/09/09 00:03:59;;;;;;;8.00;7.20;;;18.60;75.80;;;;;;6197624;28;20488;-78
2021/09/09 00:07:01;;;;;;;9.77;7.47;;;18.50;76.00;;;;;;6198359;28;20422;-78
2021/09/09 00:10:04;;;;;;;9.20;7.30;;;18.50;76.20;;;;;;6198640;28;20426;-78
2021/09/09 00:13:06;;;;;;;7.47;6.65;;;18.40;76.20;;;;;;6198774;28;20445;-78
2021/09/09 00:16:10;;;;;;;13.60;7.83;;;18.30;76.60;;;;;;6197856;28;21181;-77
2021/09/09 00:19:12;;;;;;;11.95;7.97;;;18.20;76.60;;;;;;6213885;28;20533;-78
2021/09/09 00:22:14;;;;;;;11.70;7.20;;;18.20;76.60;;;;;;6222378;28;20511;-78
2021/09/09 00:25:16;;;;;;;11.02;8.43;;;18.30;76.60;;;;;;6222600;28;20924;-79
2021/09/09 00:28:17;;;;;;;9.53;7.57;;;18.30;76.50;;;;;;6221852;28;20423;-78
2021/09/09 00:31:21;;;;;;;8.02;7.00;;;18.30;76.60;;;;;;6221949;28;20448;-79
2021/09/09 00:34:22;;;;;;;7.85;6.88;;;18.30;76.70;;;;;;6221993;28;20531;-78
2021/09/09 00:37:24;;;;;;;9.10;6.63;;;18.20;76.80;;;;;;6223166;28;20620;-79
2021/09/09 00:40:26;;;;;;;8.63;7.13;;;18.10;76.90;;;;;;6221388;28;20944;-78
2021/09/09 00:43:28;;;;;;;10.80;6.93;;;18.10;77.00;;;;;;6221764;28;20463;-79
2021/09/09 00:46:32;;;;;;;8.10;7.32;;;18.00;77.10;;;;;;6221643;28;20559;-79
2021/09/09 00:49:35;;;;;;;9.27;8.00;;;17.90;77.20;;;;;;6222170;28;20477;-78
2021/09/09 00:52:38;;;;;;;7.97;7.28;;;17.80;77.30;;;;;;6221571;28;20932;-77
2021/09/09 00:55:40;;;;;;;8.25;7.45;;;17.80;77.50;;;;;;6222272;28;20486;-79
2021/09/09 00:58:44;;;;;;;8.52;7.63;;;17.80;77.50;;;;;;6222760;28;20551;-79
2021/09/09 01:01:48;;;;;;;7.13;6.47;;;17.80;77.60;;;;;;6222518;28;20489;-77
2021/09/09 01:04:50;;;;;;;8.10;7.30;;;17.80;77.60;;;;;;6225504;28;20807;-78
2021/09/09 01:07:52;;;;;;;7.97;7.15;;;17.80;77.50;;;;;;6225918;28;20921;-79
2021/09/09 01:10:53;;;;;;;8.97;8.07;;;17.70;77.60;;;;;;6226584;28;20929;-79
2021/09/09 01:14:05;;;;;;;8.30;7.18;;;17.70;77.70;;;;;;6225916;28;20392;-79
2021/09/09 01:17:09;;;;;;;7.78;7.07;;;17.60;77.60;;;;;;6226472;28;20432;-78
2021/09/09 01:20:12;;;;;;;7.97;6.60;;;17.60;77.80;;;;;;6226962;28;20487;-79
2021/09/09 01:23:14;;;;;;;8.63;7.32;;;17.50;77.70;;;;;;6225711;28;20894;-78
2021/09/09 01:26:17;;;;;;;9.93;8.13;;;17.50;77.80;;;;;;6225498;28;20424;-78
2021/09/09 01:29:20;;;;;;;8.60;6.90;;;17.40;78.00;;;;;;6225952;28;20432;-79
2021/09/09 01:32:21;;;;;;;9.30;7.35;;;17.40;78.00;;;;;;6225601;28;20484;-78
2021/09/09 01:35:23;;;;;;;8.18;6.78;;;17.40;78.20;;;;;;6225512;28;20483;-79
2021/09/09 01:38:25;;;;;;;9.57;7.82;;;17.40;78.00;;;;;;6225844;28;20470;-78
2021/09/09 01:41:28;;;;;;;10.95;7.40;;;17.40;78.00;;;;;;6225896;28;20524;-78
2021/09/09 01:44:31;;;;;;;10.68;7.63;;;17.40;78.00;;;;;;6227019;28;20420;-79
2021/09/09 01:47:33;;;;;;;8.27;6.55;;;17.30;78.00;;;;;;6225920;28;20492;-79
2021/09/09 01:50:34;;;;;;;9.57;7.43;;;17.30;78.10;;;;;;6227060;28;20413;-79
2021/09/09 01:53:36;;;;;;;8.90;7.63;;;17.20;78.20;;;;;;6227077;28;20460;-78
2021/09/09 01:56:40;;;;;;;8.43;7.63;;;17.10;78.20;;;;;;6227136;28;20842;-79
2021/09/09 01:59:42;;;;;;;8.52;7.65;;;17.20;78.20;;;;;;6227504;28;20496;-79
2021/09/09 02:02:44;;;;;;;7.97;6.88;;;17.10;78.20;;;;;;6226553;28;20778;-79
2021/09/09 02:05:46;;;;;;;7.45;6.68;;;17.10;78.40;;;;;;6226723;28;20436;-79
2021/09/09 02:08:48;;;;;;;7.60;6.00;;;17.10;78.40;;;;;;6225212;28;20496;-78
2021/09/09 02:11:51;;;;;;;8.10;6.85;;;17.10;78.40;;;;;;6225052;28;20487;-79
2021/09/09 02:14:52;;;;;;;11.60;7.18;;;17.10;78.50;;;;;;6224328;28;20554;-78
2021/09/09 02:17:54;;;;;;;8.57;7.07;;;17.00;78.40;;;;;;6227968;28;20433;-79
2021/09/09 02:20:56;;;;;;;8.30;7.50;;;17.00;78.40;;;;;;6229209;28;20944;-78
2021/09/09 02:23:58;;;;;;;8.55;7.55;;;17.00;78.50;;;;;;6229495;28;20413;-79
2021/09/09 02:27:01;;;;;;;8.27;6.97;;;17.00;78.20;;;;;;6228892;28;20448;-78
2021/09/09 02:30:04;;;;;;;8.27;6.38;;;17.00;78.30;;;;;;6228744;28;20494;-78
2021/09/09 02:33:06;;;;;;;11.27;7.32;;;16.90;78.40;;;;;;6229160;28;20516;-78
2021/09/09 02:36:08;;;;;;;8.07;7.28;;;16.80;78.50;;;;;;6228166;28;20448;-78
2021/09/09 02:39:09;;;;;;;7.30;6.60;;;16.80;78.30;;;;;;6228397;28;20958;-78
2021/09/09 02:42:13;;;;;;;8.30;7.50;;;16.70;78.50;;;;;;6228115;28;20479;-78
2021/09/09 02:45:14;;;;;;;8.10;7.07;;;16.70;78.70;;;;;;6228652;28;20469;-78
2021/09/09 02:48:16;;;;;;;7.40;6.68;;;16.60;78.70;;;;;;6228443;28;20486;-78
2021/09/09 02:51:18;;;;;;;7.20;6.47;;;16.60;78.80;;;;;;6227781;28;20894;-78
2021/09/09 02:54:20;;;;;;;9.82;7.47;;;16.60;78.90;;;;;;6228090;28;20497;-78
2021/09/09 02:57:23;;;;;;;12.18;8.35;;;16.60;78.80;;;;;;6227839;28;20432;-79
2021/09/09 03:00:25;;;;;;;8.05;7.25;;;16.60;78.80;;;;;;6226755;28;20429;-78
2021/09/09 03:03:27;;;;;;;10.25;7.15;;;16.60;78.90;;;;;;6226009;28;20578;-79
2021/09/09 03:06:29;;;;;;;9.35;7.85;;;16.50;79.00;;;;;;6227016;28;20914;-78
2021/09/09 03:09:30;;;;;;;7.67;6.87;;;16.50;79.10;;;;;;6227078;28;20574;-78
2021/09/09 03:12:34;;;;;;;7.82;7.03;;;16.50;79.10;;;;;;6226323;28;20409;-77
2021/09/09 03:15:36;;;;;;;10.15;7.85;;;16.40;79.10;;;;;;6226587;28;20985;-78
2021/09/09 03:18:38;;;;;;;8.63;7.53;;;16.40;79.10;;;;;;6226945;28;20498;-78
2021/09/09 03:21:39;;;;;;;8.57;7.68;;;16.40;79.00;;;;;;6227311;28;20547;-78
2021/09/09 03:24:41;;;;;;;10.47;8.33;;;16.40;79.30;;;;;;6228117;28;20503;-78
2021/09/09 03:27:45;;;;;;;10.50;7.93;;;16.40;79.10;;;;;;6226815;28;20567;-79
2021/09/09 03:30:46;;;;;;;8.02;7.22;;;16.30;79.20;;;;;;6227694;28;20499;-79
2021/09/09 03:33:48;;;;;;;7.83;7.03;;;16.20;79.60;;;;;;6227400;28;20561;-77
2021/09/09 03:36:50;;;;;;;8.02;7.18;;;16.20;79.80;;;;;;6227615;28;20587;-78
2021/09/09 03:39:52;;;;;;;9.10;8.13;;;16.20;79.80;;;;;;6226799;28;20413;-79
2021/09/09 03:42:55;;;;;;;8.88;8.00;;;16.20;79.80;;;;;;6227668;28;20444;-79
2021/09/09 03:45:57;;;;;;;9.25;7.93;;;16.10;79.60;;;;;;6227293;28;20464;-78
2021/09/09 03:48:59;;;;;;;8.23;7.33;;;16.10;79.70;;;;;;6227465;28;20500;-78
2021/09/09 03:52:01;;;;;;;8.23;7.43;;;16.10;79.70;;;;;;6227482;28;20445;-78
2021/09/09 03:55:03;;;;;;;8.82;7.93;;;16.00;79.80;;;;;;6227022;28;20506;-78
2021/09/09 03:58:06;;;;;;;8.73;7.32;;;16.00;79.90;;;;;;6227445;28;20437;-78
2021/09/09 04:01:08;;;;;;;7.60;6.88;;;16.10;79.90;;;;;;6227676;28;20468;-78
2021/09/09 04:04:10;;;;;;;10.50;7.57;;;16.10;79.60;;;;;;6227035;28;20492;-79
2021/09/09 04:07:12;;;;;;;9.05;7.72;;;16.10;79.70;;;;;;6227215;28;20467;-78
2021/09/09 04:10:14;;;;;;;9.03;8.13;;;16.10;79.50;;;;;;6227229;28;20579;-79
2021/09/09 04:13:17;;;;;;;12.85;8.35;;;16.10;79.50;;;;;;6226985;28;20882;-78
2021/09/09 04:16:19;;;;;;;8.90;8.10;;;16.10;79.50;;;;;;6226367;28;20417;-78
2021/09/09 04:19:23;;;;;;;10.27;8.00;;;16.10;80.10;;;;;;6226817;28;20417;-78
2021/09/09 04:22:25;;;;;;;8.40;6.97;;;16.10;79.60;;;;;;6225280;28;20424;-77
2021/09/09 04:25:27;;;;;;;9.95;7.45;;;16.10;79.50;;;;;;6222282;28;20444;-77
2021/09/09 04:28:30;;;;;;;9.95;7.55;;;16.10;79.50;;;;;;6221825;28;20547;-77
2021/09/09 04:31:34;;;;;;;9.77;7.97;;;16.10;79.50;;;;;;6222124;28;20420;-77
2021/09/09 04:34:35;;;;;;;9.23;8.23;;;16.10;79.50;;;;;;6222024;28;20440;-77
2021/09/09 04:37:37;;;;;;;9.38;8.20;;;16.10;79.20;;;;;;6221863;28;20515;-77
2021/09/09 04:40:39;;;;;;;9.52;8.52;;;16.10;79.50;;;;;;6222311;28;20775;-77
2021/09/09 04:43:42;;;;;;;9.57;8.50;;;16.20;79.50;;;;;;6221662;28;20496;-77
2021/09/09 04:46:44;;;;;;;10.77;8.40;;;17.00;79.80;;;;;;6221241;28;20477;-77
2021/09/09 04:49:46;;;;;;;12.25;7.90;;;16.20;79.20;;;;;;6221921;28;20460;-77
2021/09/09 04:52:48;;;;;;;12.40;8.73;;;16.20;79.00;;;;;;6221814;28;20845;-77
2021/09/09 04:55:50;;;;;;;8.27;7.47;;;16.20;78.90;;;;;;6220933;28;20421;-77
2021/09/09 04:58:53;;;;;;;8.95;7.80;;;16.20;79.10;;;;;;6221455;28;20487;-77
2021/09/09 05:01:55;;;;;;;9.27;8.13;;;16.10;79.10;;;;;;6221441;28;20515;-77
2021/09/09 05:04:56;;;;;;;8.68;7.50;;;16.20;79.10;;;;;;6221894;28;20530;-77
2021/09/09 05:07:58;;;;;;;9.23;8.20;;;16.20;79.20;;;;;;6221398;28;20427;-77
2021/09/09 05:11:00;;;;;;;11.75;8.30;;;16.20;79.00;;;;;;6221315;28;20555;-77
2021/09/09 05:14:03;;;;;;;11.63;8.15;;;16.20;79.00;;;;;;6221294;28;20420;-77
2021/09/09 05:17:05;;;;;;;14.67;9.10;;;16.20;79.00;;;;;;6221462;28;20522;-77
2021/09/09 05:20:08;;;;;;;10.55;8.70;;;16.20;78.70;;;;;;6221310;28;20945;-77
2021/09/09 05:23:10;;;;;;;8.95;8.05;;;16.30;79.10;;;;;;6221046;28;20488;-77
2021/09/09 05:26:11;;;;;;;11.48;8.05;;;16.30;78.80;;;;;;6220857;28;20475;-77
2021/09/09 05:29:15;;;;;;;12.03;8.50;;;16.40;78.70;;;;;;6221650;28;20428;-77
2021/09/09 05:32:16;;;;;;;9.75;8.15;;;16.50;79.00;;;;;;6221136;28;20467;-77
2021/09/09 05:35:18;;;;;;;10.65;7.32;;;16.60;78.30;;;;;;6220688;28;20496;-76
2021/09/09 05:38:20;;;;;;;8.32;7.45;;;16.70;78.20;;;;;;6221230;28;20548;-77
2021/09/09 05:41:22;;;;;;;11.57;8.30;;;16.90;78.20;;;;;;6221289;28;20490;-77
2021/09/09 05:44:25;;;;;;;9.65;7.90;;;17.00;78.20;;;;;;6220916;28;20939;-77
2021/09/09 05:47:27;;;;;;;10.77;7.63;;;17.10;77.50;;;;;;6221657;28;20413;-77
2021/09/09 05:50:29;;;;;;;12.32;7.88;;;17.20;77.10;;;;;;6221227;28;20500;-77
2021/09/09 05:53:31;;;;;;;8.63;7.63;;;17.20;76.80;;;;;;6225829;28;20460;-77
2021/09/09 05:56:32;;;;;;;12.52;7.30;;;17.30;76.90;;;;;;6225134;28;20408;-77
2021/09/09 05:59:36;;;;;;;7.53;6.72;;;17.30;76.60;;;;;;6225276;28;20425;-77
2021/09/09 06:02:42;;;;;;;10.33;7.40;;;17.50;76.60;;;;;;6224908;28;20551;-77
2021/09/09 06:05:44;;;;;;;13.00;7.93;;;17.70;75.90;;;;;;6224692;28;21172;-77
2021/09/09 06:08:46;;;;;;;8.52;7.60;;;17.80;76.00;;;;;;6225874;28;20487;-77
2021/09/09 06:11:48;;;;;;;8.00;6.93;;;18.00;75.90;;;;;;6225197;28;20501;-77
2021/09/09 06:14:51;;;;;;;11.13;7.50;;;18.20;75.50;;;;;;6224684;28;20943;-77
2021/09/09 06:17:53;;;;;;;10.10;7.95;;;18.30;75.30;;;;;;6224721;28;20444;-77
2021/09/09 06:20:55;;;;;;;11.77;8.30;;;18.50;74.90;;;;;;6225573;28;20527;-77
2021/09/09 06:23:56;;;;;;;10.68;8.07;;;18.60;74.80;;;;;;6224856;28;20491;-77
2021/09/09 06:26:58;;;;;;;9.80;7.90;;;18.50;75.10;;;;;;6224772;28;20420;-77
2021/09/09 06:30:01;;;;;;;9.95;7.38;;;18.60;75.00;;;;;;6224755;28;20906;-77
2021/09/09 06:33:03;;;;;;;8.93;8.03;;;18.80;74.90;;;;;;6225236;28;20559;-77
2021/09/09 06:36:05;;;;;;;10.30;7.93;;;19.10;73.90;;;;;;6224314;28;20458;-77
2021/09/09 06:39:07;;;;;;;9.50;7.85;;;19.30;73.60;;;;;;6224237;28;20459;-77
2021/09/09 06:42:09;;;;;;;10.88;8.05;;;19.60;72.90;;;;;;6224388;28;20416;-77
2021/09/09 06:45:13;;;;;;;11.67;7.47;;;19.80;72.20;;;;;;6224922;28;20452;-77
2021/09/09 06:48:15;;;;;;;9.65;7.65;;;20.00;72.10;;;;;;6224515;28;20488;-77
2021/09/09 06:51:21;;;;;;;9.02;6.80;;;20.20;71.70;;;;;;6224787;28;20440;-77
2021/09/09 06:54:23;;;;;;;8.73;7.23;;;20.50;70.90;;;;;;6227437;28;21043;-78
2021/09/09 06:57:24;;;;;;;9.95;7.43;;;20.80;71.10;;;;;;6228148;28;20464;-78
2021/09/09 07:00:28;;;;;;;9.55;7.05;;;21.10;70.00;;;;;;6227386;28;20428;-78
2021/09/09 07:03:30;;;;;;;12.68;7.80;;;21.40;68.90;;;;;;6224970;28;20417;-77
2021/09/09 07:06:32;;;;;;;7.47;6.67;;;21.70;68.10;;;;;;6230881;28;20418;-78
2021/09/09 07:09:34;;;;;;;12.63;7.10;;;22.00;66.80;;;;;;6238381;28;20487;-78
2021/09/09 07:12:36;;;;;;;8.57;7.32;;;22.30;66.10;;;;;;6231467;28;20474;-78
2021/09/09 07:15:40;;;;;;;10.73;8.07;;;22.60;65.30;;;;;;6228966;28;20890;-78
2021/09/09 07:18:42;;;;;;;8.90;7.97;;;23.00;63.90;;;;;;6230641;28;20417;-78
2021/09/09 07:21:49;;;;;;;11.07;8.55;;;23.40;62.70;;;;;;6229746;28;20515;-78
2021/09/09 07:24:51;;;;;;;11.35;8.57;;;23.80;62.10;;;;;;6228067;28;20910;-78
2021/09/09 07:27:53;;;;;;;11.38;8.50;;;24.10;61.70;;;;;;6227430;28;20755;-78
2021/09/09 07:30:56;;;;;;;12.73;8.43;;;24.30;60.60;;;;;;6227866;28;20506;-78
2021/09/09 07:33:58;;;;;;;10.93;9.00;;;24.40;60.20;;;;;;6229879;28;20401;-78
2021/09/09 07:37:00;;;;;;;10.43;9.45;;;24.60;59.60;;;;;;6229888;28;20508;-78
2021/09/09 07:40:02;;;;;;;12.93;9.90;;;24.90;59.10;;;;;;6229746;28;20444;-78
2021/09/09 07:43:04;;;;;;;15.02;10.20;;;25.10;58.50;;;;;;6228364;28;20502;-77
2021/09/09 07:46:07;;;;;;;10.30;9.02;;;25.20;58.10;;;;;;6229437;28;20456;-78
2021/09/09 07:49:09;;;;;;;12.97;9.83;;;25.50;57.70;;;;;;6233925;28;20436;-79
2021/09/09 07:52:11;;;;;;;14.95;9.65;;;25.70;56.90;;;;;;6229810;28;20417;-76
2021/09/09 07:55:13;;;;;;;14.30;9.45;;;26.00;56.40;;;;;;6225141;28;20494;-77
2021/09/09 07:58:15;;;;;;;17.42;9.60;;;26.20;55.20;;;;;;6225620;28;20500;-77
2021/09/09 08:01:20;;;;;;;14.15;9.27;;;26.40;54.50;;;;;;6224821;28;20451;-77
2021/09/09 08:04:23;;;;;;;12.15;9.13;;;26.40;54.30;;;;;;6223994;28;20499;-77
2021/09/09 08:07:25;;;;;;;11.45;8.52;;;26.50;54.00;;;;;;6225881;28;20416;-77
2021/09/09 08:10:26;;;;;;;10.55;8.15;;;26.70;54.10;;;;;;6226075;28;20465;-77
2021/09/09 08:13:28;;;;;;;8.65;7.75;;;26.90;53.20;;;;;;6227147;28;20515;-78
2021/09/09 08:16:32;;;;;;;15.75;8.13;;;27.10;52.40;;;;;;6223844;28;20509;-77
2021/09/09 08:19:34;;;;;;;8.60;7.53;;;27.30;52.10;;;;;;6223710;28;20488;-77
2021/09/09 08:22:35;;;;;;;11.43;7.95;;;27.40;51.50;;;;;;6223630;28;20953;-78
2021/09/09 08:25:37;;;;;;;9.02;7.45;;;27.60;51.40;;;;;;6224093;28;20512;-77
2021/09/09 08:28:39;;;;;;;9.02;7.45;;;27.70;50.90;;;;;;6223762;28;20476;-76
2021/09/09 08:31:42;;;;;;;10.18;7.47;;;27.70;50.40;;;;;;6222707;28;20548;-76
2021/09/09 08:34:44;;;;;;;9.18;7.70;;;27.80;50.10;;;;;;6222057;28;20547;-77
2021/09/09 08:37:46;;;;;;;8.45;7.05;;;27.80;50.10;;;;;;6222634;28;21053;-76
2021/09/09 08:40:51;;;;;;;10.57;6.97;;;27.80;50.20;;;;;;6222793;28;20858;-76
2021/09/09 08:43:53;;;;;;;8.93;6.97;;;28.00;50.20;;;;;;6221228;28;20445;-76
2021/09/09 08:46:57;;;;;;;9.57;6.47;;;28.00;50.70;;;;;;6222924;28;20409;-77
2021/09/09 08:49:59;;;;;;;7.75;6.82;;;28.10;49.60;;;;;;6216709;28;20782;-76
2021/09/09 08:53:02;;;;;;;7.75;6.00;;;28.20;50.00;;;;;;6221847;28;20465;-76
2021/09/09 08:56:04;;;;;;;6.93;5.95;;;28.30;50.40;;;;;;6221109;28;20460;-77
2021/09/09 08:59:06;;;;;;;6.78;4.88;;;28.50;49.40;;;;;;6221814;28;20499;-76
2021/09/09 09:02:10;;;;;;;14.35;5.43;;;28.70;48.00;;;;;;6221780;28;20421;-76
2021/09/09 09:05:12;;;;;;;7.88;4.60;;;28.90;47.20;;;;;;6222065;28;20432;-76
2021/09/09 09:08:14;;;;;;;10.05;5.43;;;29.10;47.00;;;;;;6222219;28;20494;-76
2021/09/09 09:11:21;;;;;;;10.20;4.65;;;29.10;47.10;;;;;;6222480;28;21042;-76
2021/09/09 09:14:25;;;;;;;15.43;5.05;;;29.30;47.50;;;;;;6221362;28;20412;-76
2021/09/09 09:17:28;;;;;;;7.60;4.93;;;29.50;46.40;;;;;;6222068;28;20854;-76
2021/09/09 09:20:40;;;;;;;8.30;4.90;;;29.40;46.60;;;;;;6221579;28;20503;-76
2021/09/09 09:23:48;;;;;;;7.22;4.45;;;29.20;46.40;;;;;;6221802;28;20464;-76
2021/09/09 09:27:07;;;;;;;6.03;3.75;;;29.00;47.00;;;;;;6220856;28;20496;-76
2021/09/09 09:30:11;;;;;;;4.53;4.10;;;28.60;47.60;;;;;;6221420;28;20887;-76
2021/09/09 09:33:31;;;;;;;9.38;4.20;;;28.50;48.50;;;;;;6222367;28;20437;-76
2021/09/09 09:36:34;;;;;;;8.53;4.10;;;28.70;47.80;;;;;;6221772;28;20506;-76
2021/09/09 09:39:36;;;;;;;6.50;4.82;;;29.00;47.30;;;;;;6222075;28;20417;-76
2021/09/09 09:42:43;;;;;;;9.02;4.22;;;29.40;47.20;;;;;;6221387;28;20496;-76
2021/09/09 09:45:50;;;;;;;5.27;4.13;;;29.60;46.30;;;;;;6221159;28;20522;-76
2021/09/09 09:48:54;;;;;;;6.55;4.15;;;29.70;45.60;;;;;;6221533;28;20537;-78
2021/09/09 09:51:57;;;;;;;6.78;4.40;;;29.60;46.50;;;;;;6221707;28;20904;-76
2021/09/09 09:55:00;;;;;;;7.43;5.18;;;29.40;46.00;;;;;;6220380;28;20456;-76
2021/09/09 09:58:02;;;;;;;4.28;3.83;;;29.00;47.20;;;;;;6220748;28;20488;-76
2021/09/09 10:01:04;;;;;;;5.25;4.22;;;29.00;47.20;;;;;;6220999;28;20472;-76
2021/09/09 10:04:09;;;;;;;5.43;4.88;;;29.10;47.30;;;;;;6220274;28;20498;-76
2021/09/09 10:07:12;;;;;;;4.43;4.03;;;29.30;47.00;;;;;;6220665;28;20506;-76
2021/09/09 10:10:14;;;;;;;7.53;4.55;;;29.30;46.90;;;;;;6220555;28;20422;-75
2021/09/09 10:13:19;;;;;;;5.22;3.90;;;29.40;46.10;;;;;;6220724;28;20913;-76
2021/09/09 10:16:22;;;;;;;4.68;4.22;;;29.40;46.20;;;;;;6220447;28;20911;-75
2021/09/09 10:19:29;;;;;;;6.77;4.20;;;29.20;46.40;;;;;;6214624;28;20448;-76
2021/09/09 10:22:31;;;;;;;8.68;4.53;;;29.20;46.40;;;;;;6220088;28;20420;-76
2021/09/09 10:25:44;;;;;;;10.98;4.32;;;29.40;46.40;;;;;;6221069;28;20476;-76
2021/09/09 10:28:48;;;;;;;10.27;4.80;;;29.60;46.10;;;;;;6222484;28;20421;-77
2021/09/09 10:31:49;;;;;;;6.15;4.53;;;29.40;46.20;;;;;;6221598;28;20767;-77
2021/09/09 10:35:27;;;;;;;5.80;4.35;;;28.80;47.40;;;;;;6221575;28;20525;-77
2021/09/09 10:38:32;;;;;;;6.20;4.38;;;28.40;48.60;;;;;;6224841;28;20424;-77
2021/09/09 10:41:34;;;;;;;7.05;4.10;;;28.60;49.10;;;;;;6226879;28;20440;-77
2021/09/09 10:44:49;;;;;;;5.00;3.95;;;29.00;48.80;;;;;;6225908;28;20550;-77
2021/09/09 10:47:51;;;;;;;5.63;4.30;;;29.60;48.20;;;;;;6219970;28;20450;-77
2021/09/09 10:51:04;;;;;;;6.13;4.28;;;30.10;47.30;;;;;;6224927;28;20417;-77
2021/09/09 10:54:15;;;;;;;8.35;4.13;;;30.50;46.60;;;;;;6225615;28;20413;-77
2021/09/09 10:57:18;;;;;;;4.93;3.88;;;30.40;46.70;;;;;;6225240;28;20934;-78
2021/09/09 11:00:40;;;;;;;9.82;4.38;;;30.50;45.80;;;;;;6225110;28;20976;-78
2021/09/09 11:03:43;;;;;;;6.28;4.15;;;30.70;45.80;;;;;;6223265;28;20463;-78
2021/09/09 11:06:46;;;;;;;4.35;3.58;;;30.80;44.00;;;;;;6222731;28;20845;-77
2021/09/09 11:09:57;;;;;;;5.80;4.60;;;30.80;44.00;;;;;;6222882;28;21065;-77
2021/09/09 11:12:59;;;;;;;9.05;4.43;;;30.90;44.20;;;;;;6224159;28;20810;-78
2021/09/09 11:16:01;;;;;;;9.27;4.63;;;31.00;43.40;;;;;;6223721;28;20504;-77
2021/09/09 11:19:04;;;;;;;13.82;5.10;;;31.20;43.30;;;;;;6224128;28;20417;-77
2021/09/09 11:22:07;;;;;;;6.63;4.40;;;31.20;43.40;;;;;;6223831;28;20495;-78
2021/09/09 11:25:18;;;;;;;10.38;4.05;;;31.50;42.50;;;;;;6225945;28;20502;-78
2021/09/09 11:28:21;;;;;;;7.65;4.85;;;31.60;41.70;;;;;;6226506;28;20488;-78
2021/09/09 11:31:25;;;;;;;4.38;3.90;;;31.60;41.30;;;;;;6225572;28;20440;-78
2021/09/09 11:34:27;;;;;;;5.18;3.78;;;31.50;41.50;;;;;;6224860;28;20845;-78
2021/09/09 11:37:30;;;;;;;9.13;4.17;;;31.50;41.50;;;;;;6226249;28;20439;-78
2021/09/09 11:40:32;;;;;;;7.43;4.55;;;31.40;42.10;;;;;;6225351;28;20448;-77
2021/09/09 11:43:38;;;;;;;5.25;4.68;;;31.50;40.80;;;;;;6221566;28;20854;-78
2021/09/09 11:46:42;;;;;;;5.15;3.90;;;31.20;41.40;;;;;;6221557;28;20451;-77
2021/09/09 11:49:44;;;;;;;5.27;4.57;;;31.30;41.40;;;;;;6220805;28;20437;-77
2021/09/09 11:53:01;;;;;;;5.40;4.13;;;31.40;42.30;;;;;;6221644;28;20898;-77
2021/09/09 11:56:21;;;;;;;8.32;4.50;;;31.70;42.10;;;;;;6221534;28;20421;-77
2021/09/09 11:59:23;;;;;;;6.65;4.53;;;32.10;41.20;;;;;;6217709;28;20421;-77
2021/09/09 12:02:28;;;;;;;9.35;3.97;;;32.30;40.20;;;;;;6159359;28;1761514;-77
2021/09/09 12:05:30;;;;;;;6.05;4.20;;;32.10;40.20;;;;;;6222679;28;20523;-77
2021/09/09 12:08:38;;;;;;;4.90;4.22;;;31.60;40.70;;;;;;6225074;28;20710;-78
2021/09/09 12:11:40;;;;;;;6.43;4.68;;;31.30;42.00;;;;;;6227271;28;20417;-78
2021/09/09 12:14:42;;;;;;;6.20;4.45;;;31.20;43.30;;;;;;6226146;28;20456;-77
2021/09/09 12:17:44;;;;;;;6.40;4.00;;;31.30;42.30;;;;;;6226287;28;20571;-78
2021/09/09 12:20:46;;;;;;;7.72;4.55;;;31.50;42.50;;;;;;6225860;28;20571;-77
2021/09/09 12:24:00;;;;;;;4.53;4.03;;;31.90;41.30;;;;;;6225135;28;20417;-77
2021/09/09 12:27:04;;;;;;;5.40;4.60;;;32.40;38.60;;;;;;6226048;28;20487;-77
2021/09/09 12:30:07;;;;;;;7.73;4.30;;;32.60;37.80;;;;;;6226344;28;20421;-78
2021/09/09 12:33:17;;;;;;;8.05;5.28;;;32.60;37.70;;;;;;6228049;28;20455;-77
2021/09/09 12:36:20;;;;;;;7.20;4.70;;;32.40;38.00;;;;;;6226107;28;20491;-77
2021/09/09 12:39:23;;;;;;;5.70;4.45;;;32.30;38.10;;;;;;6226205;28;21153;-77
2021/09/09 12:42:25;;;;;;;5.97;4.70;;;32.30;38.40;;;;;;6225100;28;20428;-77
2021/09/09 12:45:41;;;;;;;7.45;5.07;;;32.10;38.20;;;;;;6225265;28;20922;-77
2021/09/09 12:49:02;;;;;;;5.65;4.35;;;31.60;39.10;;;;;;6224962;28;20436;-77
2021/09/09 12:52:09;;;;;;;9.00;5.28;;;31.10;40.40;;;;;;6217593;28;20412;-77
2021/09/09 12:55:12;;;;;;;5.57;4.90;;;30.70;41.30;;;;;;6224951;28;20417;-77
2021/09/09 12:58:14;;;;;;;7.53;4.88;;;30.40;42.40;;;;;;6223868;28;20444;-77
2021/09/09 13:01:16;;;;;;;11.17;5.10;;;30.10;43.80;;;;;;6224753;28;20435;-77
2021/09/09 13:04:18;;;;;;;6.75;4.90;;;29.70;44.00;;;;;;6224677;28;20432;-78
2021/09/09 13:07:20;;;;;;;6.63;5.28;;;29.60;44.30;;;;;;6226031;28;20429;-78
2021/09/09 13:10:23;;;;;;;9.02;4.65;;;29.50;45.00;;;;;;6226878;28;20445;-78
2021/09/09 13:13:26;;;;;;;6.80;4.68;;;29.30;44.80;;;;;;6226695;28;20428;-78
2021/09/09 13:16:27;;;;;;;8.77;5.15;;;29.20;45.60;;;;;;6224731;28;20815;-77
2021/09/09 13:19:31;;;;;;;8.27;5.70;;;29.00;45.80;;;;;;6218545;28;20504;-78
2021/09/09 13:22:33;;;;;;;10.27;5.22;;;28.80;46.40;;;;;;6227087;28;20464;-78
2021/09/09 13:25:36;;;;;;;7.22;5.68;;;28.80;46.90;;;;;;6226774;28;21032;-78
2021/09/09 13:28:40;;;;;;;9.57;5.55;;;28.80;46.30;;;;;;6225705;28;20495;-78
2021/09/09 13:31:43;;;;;;;5.60;5.03;;;28.70;46.90;;;;;;6225524;28;20420;-78
2021/09/09 13:34:45;;;;;;;6.72;4.93;;;28.70;47.20;;;;;;6226049;28;20417;-77
2021/09/09 13:37:47;;;;;;;7.63;5.72;;;28.80;47.60;;;;;;6225493;28;20918;-78
2021/09/09 13:40:50;;;;;;;8.23;5.57;;;28.80;47.40;;;;;;6227097;28;20436;-78
2021/09/09 13:43:52;;;;;;;9.30;5.00;;;28.80;47.20;;;;;;6226907;28;20466;-78
2021/09/09 13:46:54;;;;;;;8.57;6.17;;;28.90;48.10;;;;;;6226239;28;20417;-78
2021/09/09 13:49:55;;;;;;;6.03;5.35;;;28.90;47.30;;;;;;6218842;28;20457;-78
2021/09/09 13:52:58;;;;;;;13.82;5.82;;;28.90;47.70;;;;;;6225975;28;20437;-78
2021/09/09 13:56:01;;;;;;;9.50;5.60;;;28.90;48.00;;;;;;6225518;28;20429;-78
2021/09/09 13:59:03;;;;;;;6.38;5.38;;;28.90;48.00;;;;;;6224638;28;20441;-78
2021/09/09 14:02:05;;;;;;;8.18;5.45;;;29.00;47.60;;;;;;6223986;28;20417;-78
2021/09/09 14:05:10;;;;;;;6.72;5.15;;;28.90;47.20;;;;;;6225183;28;20460;-77
2021/09/09 14:08:12;;;;;;;11.97;6.20;;;28.90;47.80;;;;;;6224860;28;20409;-77
2021/09/09 14:11:15;;;;;;;10.67;6.13;;;29.00;46.40;;;;;;6223954;28;20551;-77
2021/09/09 14:14:17;;;;;;;8.35;5.57;;;29.00;47.40;;;;;;6228510;28;20819;-78
2021/09/09 14:17:19;;;;;;;8.50;5.57;;;29.00;46.80;;;;;;6230330;28;20456;-77
2021/09/09 14:20:21;;;;;;;10.75;5.40;;;29.00;46.80;;;;;;6241384;28;20421;-77
2021/09/09 14:23:23;;;;;;;8.70;5.75;;;29.00;46.10;;;;;;6230204;28;20419;-77
2021/09/09 14:26:26;;;;;;;6.80;6.00;;;29.00;46.70;;;;;;6225581;28;20475;-76
2021/09/09 14:29:30;;;;;;;8.85;6.15;;;29.00;47.20;;;;;;6224974;28;20508;-76
2021/09/09 14:32:32;;;;;;;6.05;5.43;;;28.90;47.00;;;;;;6224799;28;20421;-77
2021/09/09 14:35:34;;;;;;;6.45;5.53;;;28.90;46.70;;;;;;6224741;28;20450;-76
2021/09/09 14:38:36;;;;;;;8.13;6.05;;;28.70;46.80;;;;;;6224473;28;20420;-76
2021/09/09 14:41:39;;;;;;;8.48;5.97;;;28.70;46.60;;;;;;6224497;28;20520;-76
2021/09/09 14:44:41;;;;;;;8.82;6.22;;;28.60;46.50;;;;;;6224481;28;20937;-76
2021/09/09 14:47:44;;;;;;;7.18;6.15;;;28.60;47.90;;;;;;6224579;28;20756;-76
2021/09/09 14:50:46;;;;;;;7.72;6.43;;;28.50;47.00;;;;;;6223326;28;20421;-77
2021/09/09 14:53:48;;;;;;;6.85;5.88;;;28.40;47.60;;;;;;6223786;28;20570;-76
2021/09/09 14:56:51;;;;;;;6.25;5.63;;;28.30;49.00;;;;;;6224362;28;20483;-76
2021/09/09 14:59:53;;;;;;;8.17;6.50;;;28.30;48.40;;;;;;6224191;28;20452;-76
2021/09/09 15:02:55;;;;;;;7.35;5.95;;;28.30;48.20;;;;;;6224073;28;20444;-76
2021/09/09 15:05:57;;;;;;;8.05;5.95;;;28.20;48.60;;;;;;6224738;28;20480;-77
2021/09/09 15:08:58;;;;;;;6.65;5.97;;;28.20;48.50;;;;;;6225122;28;20578;-76
2021/09/09 15:12:02;;;;;;;7.05;6.35;;;28.20;49.00;;;;;;6223323;28;20949;-76
2021/09/09 15:15:05;;;;;;;8.43;6.07;;;28.20;49.00;;;;;;6223163;28;20440;-78
2021/09/09 15:18:07;;;;;;;8.95;5.75;;;28.10;48.50;;;;;;6224435;28;20494;-76
2021/09/09 15:21:09;;;;;;;9.82;6.03;;;28.10;48.50;;;;;;6223947;28;20563;-76
2021/09/09 15:24:11;;;;;;;9.48;5.93;;;28.00;48.50;;;;;;6222353;28;20423;-76
2021/09/09 15:27:14;;;;;;;6.93;6.07;;;28.00;49.20;;;;;;6222967;28;20424;-77
2021/09/09 15:30:16;;;;;;;9.05;6.03;;;27.90;49.60;;;;;;6224703;28;20468;-76
2021/09/09 15:33:18;;;;;;;11.93;5.83;;;27.90;50.80;;;;;;6224650;28;20473;-77
2021/09/09 15:36:19;;;;;;;8.93;5.77;;;27.80;50.70;;;;;;6222833;28;20510;-76
2021/09/09 15:39:21;;;;;;;9.57;6.20;;;27.80;50.40;;;;;;6223604;28;20591;-77
2021/09/09 15:42:25;;;;;;;10.03;5.83;;;27.80;51.40;;;;;;6222832;28;20500;-76
2021/09/09 15:45:27;;;;;;;10.02;6.28;;;27.70;51.80;;;;;;6206234;28;20844;-76
2021/09/09 15:48:29;;;;;;;7.25;6.15;;;27.60;52.60;;;;;;6204423;28;20417;-76